sensor_id;sensor_type;location;lat;lon;timestamp;pressure;altitude;pressure_sealevel;temperature;humidity
77118;BME280;66072;50.238;19.228;2024-01-27T00:01:49;98855.89;;;3.47;97.87
77118;BME280;66072;50.238;19.228;2024-01-27T00:04:16;98861.68;;;3.43;98.45
77118;BME280;66072;50.238;19.228;2024-01-27T00:06:44;98869.85;;;3.39;98.58
77118;BME280;66072;50.238;19.228;2024-01-27T00:09:12;98872.23;;;3.37;98.94
77118;BME280;66072;50.238;19.228;2024-01-27T00:11:40;98881.23;;;3.33;99.27
77118;BME280;66072;50.238;19.228;2024-01-27T00:14:07;98885.83;;;3.30;99.79
77118;BME280;66072;50.238;19.228;2024-01-27T00:16:35;98888.06;;;3.26;99.98
77118;BME280;66072;50.238;19.228;2024-01-27T00:19:03;98893.66;;;3.24;99.96
77118;BME280;66072;50.238;19.228;2024-01-27T00:21:31;98899.77;;;3.22;98.82
77118;BME280;66072;50.238;19.228;2024-01-27T00:23:58;98909.89;;;3.23;97.07
77118;BME280;66072;50.238;19.228;2024-01-27T00:26:26;98908.52;;;3.25;95.13
77118;BME280;66072;50.238;19.228;2024-01-27T00:28:54;98915.80;;;3.26;94.52
77118;BME280;66072;50.238;19.228;2024-01-27T00:31:22;98916.14;;;3.23;94.36
77118;BME280;66072;50.238;19.228;2024-01-27T00:33:50;98934.44;;;3.21;93.57
77118;BME280;66072;50.238;19.228;2024-01-27T00:36:17;98933.73;;;3.22;92.96
77118;BME280;66072;50.238;19.228;2024-01-27T00:38:46;98934.90;;;3.23;92.29
77118;BME280;66072;50.238;19.228;2024-01-27T00:41:17;98940.48;;;3.23;91.82
77118;BME280;66072;50.238;19.228;2024-01-27T00:43:45;98953.65;;;3.24;91.59
77118;BME280;66072;50.238;19.228;2024-01-27T00:46:13;98957.38;;;3.27;90.78
77118;BME280;66072;50.238;19.228;2024-01-27T00:48:41;98952.45;;;3.28;89.58
77118;BME280;66072;50.238;19.228;2024-01-27T00:51:09;98964.23;;;3.32;88.72
77118;BME280;66072;50.238;19.228;2024-01-27T00:53:37;98969.13;;;3.34;88.96
77118;BME280;66072;50.238;19.228;2024-01-27T00:56:05;98970.17;;;3.31;89.63
77118;BME280;66072;50.238;19.228;2024-01-27T00:58:32;98972.57;;;3.28;89.15
77118;BME280;66072;50.238;19.228;2024-01-27T01:01:00;98966.46;;;3.30;88.11
77118;BME280;66072;50.238;19.228;2024-01-27T01:03:27;98975.58;;;3.32;88.14
77118;BME280;66072;50.238;19.228;2024-01-27T01:05:55;98979.80;;;3.32;88.63
77118;BME280;66072;50.238;19.228;2024-01-27T01:08:23;98984.72;;;3.29;88.94
77118;BME280;66072;50.238;19.228;2024-01-27T01:10:51;98990.83;;;3.29;88.77
77118;BME280;66072;50.238;19.228;2024-01-27T01:13:19;98993.02;;;3.28;88.52
77118;BME280;66072;50.238;19.228;2024-01-27T01:15:46;98989.82;;;3.28;89.15
77118;BME280;66072;50.238;19.228;2024-01-27T01:18:14;98997.27;;;3.26;88.95
77118;BME280;66072;50.238;19.228;2024-01-27T01:20:42;98996.77;;;3.26;89.22
77118;BME280;66072;50.238;19.228;2024-01-27T01:23:10;98987.81;;;3.23;89.49
77118;BME280;66072;50.238;19.228;2024-01-27T01:25:37;98992.20;;;3.24;88.88
77118;BME280;66072;50.238;19.228;2024-01-27T01:28:05;98990.17;;;3.24;88.40
77118;BME280;66072;50.238;19.228;2024-01-27T01:30:33;98995.41;;;3.26;88.64
77118;BME280;66072;50.238;19.228;2024-01-27T01:33:00;98988.15;;;3.24;88.98
77118;BME280;66072;50.238;19.228;2024-01-27T01:35:28;98999.83;;;3.22;89.13
77118;BME280;66072;50.238;19.228;2024-01-27T01:37:56;99006.45;;;3.20;89.12
77118;BME280;66072;50.238;19.228;2024-01-27T01:40:24;98993.77;;;3.20;89.03
77118;BME280;66072;50.238;19.228;2024-01-27T01:42:51;99003.58;;;3.20;89.05
77118;BME280;66072;50.238;19.228;2024-01-27T01:45:19;99010.52;;;3.18;89.32
77118;BME280;66072;50.238;19.228;2024-01-27T01:47:47;99005.14;;;3.14;88.73
77118;BME280;66072;50.238;19.228;2024-01-27T01:50:15;99007.00;;;3.15;87.73
77118;BME280;66072;50.238;19.228;2024-01-27T01:52:44;99014.45;;;3.14;87.95
77118;BME280;66072;50.238;19.228;2024-01-27T01:55:11;99013.09;;;3.14;87.24
77118;BME280;66072;50.238;19.228;2024-01-27T01:57:39;99017.48;;;3.14;87.18
77118;BME280;66072;50.238;19.228;2024-01-27T02:00:07;99015.30;;;3.14;86.48
77118;BME280;66072;50.238;19.228;2024-01-27T02:02:35;99011.91;;;3.13;85.97
77118;BME280;66072;50.238;19.228;2024-01-27T02:05:03;99010.87;;;3.16;84.78
77118;BME280;66072;50.238;19.228;2024-01-27T02:07:31;99009.84;;;3.17;84.36
77118;BME280;66072;50.238;19.228;2024-01-27T02:09:59;99012.53;;;3.19;84.00
77118;BME280;66072;50.238;19.228;2024-01-27T02:12:26;99006.45;;;3.18;84.19
77118;BME280;66072;50.238;19.228;2024-01-27T02:14:54;99006.12;;;3.18;84.37
77118;BME280;66072;50.238;19.228;2024-01-27T02:17:22;99005.61;;;3.18;84.48
77118;BME280;66072;50.238;19.228;2024-01-27T02:19:50;99001.05;;;3.17;84.44
77118;BME280;66072;50.238;19.228;2024-01-27T02:22:17;99004.78;;;3.16;84.87
77118;BME280;66072;50.238;19.228;2024-01-27T02:24:45;99003.62;;;3.15;84.44
77118;BME280;66072;50.238;19.228;2024-01-27T02:27:13;99002.27;;;3.13;84.60
77118;BME280;66072;50.238;19.228;2024-01-27T02:29:41;98991.80;;;3.14;83.77
77118;BME280;66072;50.238;19.228;2024-01-27T02:32:08;99003.41;;;3.17;83.22
77118;BME280;66072;50.238;19.228;2024-01-27T02:34:36;99014.40;;;3.17;83.24
77118;BME280;66072;50.238;19.228;2024-01-27T02:37:04;99016.76;;;3.18;83.29
77118;BME280;66072;50.238;19.228;2024-01-27T02:39:32;99012.56;;;3.15;83.42
77118;BME280;66072;50.238;19.228;2024-01-27T02:41:59;99006.49;;;3.13;83.81
77118;BME280;66072;50.238;19.228;2024-01-27T02:44:27;99008.36;;;3.11;84.03
77118;BME280;66072;50.238;19.228;2024-01-27T02:46:55;99013.98;;;3.07;84.03
77118;BME280;66072;50.238;19.228;2024-01-27T02:49:23;99014.84;;;3.04;83.99
77118;BME280;66072;50.238;19.228;2024-01-27T02:51:50;99014.00;;;3.04;84.23
77118;BME280;66072;50.238;19.228;2024-01-27T02:54:18;99014.20;;;3.03;84.15
77118;BME280;66072;50.238;19.228;2024-01-27T02:56:46;99018.92;;;3.02;84.22
77118;BME280;66072;50.238;19.228;2024-01-27T02:59:13;99024.67;;;3.02;84.71
77118;BME280;66072;50.238;19.228;2024-01-27T03:01:41;99026.20;;;3.02;84.73
77118;BME280;66072;50.238;19.228;2024-01-27T03:04:09;99027.55;;;3.01;84.97
77118;BME280;66072;50.238;19.228;2024-01-27T03:06:36;99035.15;;;3.00;85.03
77118;BME280;66072;50.238;19.228;2024-01-27T03:09:04;99029.74;;;3.00;85.40
77118;BME280;66072;50.238;19.228;2024-01-27T03:11:32;99036.19;;;2.98;85.29
77118;BME280;66072;50.238;19.228;2024-01-27T03:14:00;99040.08;;;2.97;84.52
77118;BME280;66072;50.238;19.228;2024-01-27T03:16:27;99054.59;;;2.99;84.47
77118;BME280;66072;50.238;19.228;2024-01-27T03:18:55;99053.05;;;3.00;85.59
77118;BME280;66072;50.238;19.228;2024-01-27T03:21:23;99054.78;;;2.94;87.07
77118;BME280;66072;50.238;19.228;2024-01-27T03:23:51;99052.66;;;2.82;88.45
77118;BME280;66072;50.238;19.228;2024-01-27T03:26:18;99056.61;;;2.73;88.74
77118;BME280;66072;50.238;19.228;2024-01-27T03:28:46;99058.84;;;2.65;89.33
77118;BME280;66072;50.238;19.228;2024-01-27T03:31:14;99054.98;;;2.61;89.70
77118;BME280;66072;50.238;19.228;2024-01-27T03:33:42;99065.46;;;2.57;89.86
77118;BME280;66072;50.238;19.228;2024-01-27T03:36:10;99066.83;;;2.54;89.78
77118;BME280;66072;50.238;19.228;2024-01-27T03:38:40;99073.07;;;2.55;89.43
77118;BME280;66072;50.238;19.228;2024-01-27T03:41:08;99091.48;;;2.58;89.33
77118;BME280;66072;50.238;19.228;2024-01-27T03:43:36;99086.40;;;2.56;90.38
77118;BME280;66072;50.238;19.228;2024-01-27T03:46:04;99079.16;;;2.52;91.29
77118;BME280;66072;50.238;19.228;2024-01-27T03:48:31;99081.55;;;2.47;91.72
77118;BME280;66072;50.238;19.228;2024-01-27T03:50:59;99083.27;;;2.42;92.29
77118;BME280;66072;50.238;19.228;2024-01-27T03:53:27;99090.86;;;2.40;92.09
77118;BME280;66072;50.238;19.228;2024-01-27T03:55:55;99097.11;;;2.39;91.93
77118;BME280;66072;50.238;19.228;2024-01-27T03:58:23;99089.52;;;2.38;91.89
77118;BME280;66072;50.238;19.228;2024-01-27T04:00:51;99095.09;;;2.38;91.85
77118;BME280;66072;50.238;19.228;2024-01-27T04:03:19;99100.83;;;2.36;91.51
77118;BME280;66072;50.238;19.228;2024-01-27T04:05:47;99105.04;;;2.38;90.74
77118;BME280;66072;50.238;19.228;2024-01-27T04:08:15;99113.31;;;2.41;90.22
77118;BME280;66072;50.238;19.228;2024-01-27T04:10:43;99118.54;;;2.42;90.39
77118;BME280;66072;50.238;19.228;2024-01-27T04:13:10;99123.60;;;2.42;89.83
77118;BME280;66072;50.238;19.228;2024-01-27T04:15:38;99129.49;;;2.44;89.55
77118;BME280;66072;50.238;19.228;2024-01-27T04:18:08;99132.71;;;2.47;88.73
77118;BME280;66072;50.238;19.228;2024-01-27T04:20:36;99129.81;;;2.50;88.32
77118;BME280;66072;50.238;19.228;2024-01-27T04:23:04;99139.11;;;2.52;88.15
77118;BME280;66072;50.238;19.228;2024-01-27T04:25:32;99132.19;;;2.52;87.77
77118;BME280;66072;50.238;19.228;2024-01-27T04:28:00;99134.54;;;2.54;87.44
77118;BME280;66072;50.238;19.228;2024-01-27T04:30:27;99144.33;;;2.55;87.21
77118;BME280;66072;50.238;19.228;2024-01-27T04:32:55;99144.49;;;2.56;86.78
77118;BME280;66072;50.238;19.228;2024-01-27T04:35:23;99142.63;;;2.57;86.71
77118;BME280;66072;50.238;19.228;2024-01-27T04:37:50;99151.24;;;2.59;87.34
77118;BME280;66072;50.238;19.228;2024-01-27T04:40:18;99156.14;;;2.55;88.11
77118;BME280;66072;50.238;19.228;2024-01-27T04:42:46;99157.02;;;2.48;89.26
77118;BME280;66072;50.238;19.228;2024-01-27T04:45:14;99154.85;;;2.38;89.83
77118;BME280;66072;50.238;19.228;2024-01-27T04:47:42;99166.17;;;2.25;90.58
77118;BME280;66072;50.238;19.228;2024-01-27T04:50:10;99165.70;;;2.13;91.47
77118;BME280;66072;50.238;19.228;2024-01-27T04:52:38;99164.86;;;2.05;91.94
77118;BME280;66072;50.238;19.228;2024-01-27T04:55:06;99159.80;;;1.99;92.30
77118;BME280;66072;50.238;19.228;2024-01-27T04:57:33;99156.59;;;1.95;92.01
77118;BME280;66072;50.238;19.228;2024-01-27T05:00:01;99158.13;;;1.98;91.61
77118;BME280;66072;50.238;19.228;2024-01-27T05:02:30;99162.83;;;2.02;91.33
77118;BME280;66072;50.238;19.228;2024-01-27T05:04:57;99162.67;;;2.05;91.04
77118;BME280;66072;50.238;19.228;2024-01-27T05:07:25;99159.62;;;2.07;90.80
77118;BME280;66072;50.238;19.228;2024-01-27T05:09:53;99157.26;;;2.10;89.97
77118;BME280;66072;50.238;19.228;2024-01-27T05:12:20;99152.18;;;2.14;89.66
77118;BME280;66072;50.238;19.228;2024-01-27T05:14:48;99157.91;;;2.19;88.83
77118;BME280;66072;50.238;19.228;2024-01-27T05:17:16;99157.75;;;2.26;87.25
77118;BME280;66072;50.238;19.228;2024-01-27T05:19:44;99158.74;;;2.32;86.87
77118;BME280;66072;50.238;19.228;2024-01-27T05:22:12;99163.12;;;2.36;86.40
77118;BME280;66072;50.238;19.228;2024-01-27T05:24:39;99162.61;;;2.40;85.85
77118;BME280;66072;50.238;19.228;2024-01-27T05:27:07;99162.95;;;2.41;84.97
77118;BME280;66072;50.238;19.228;2024-01-27T05:29:37;99161.75;;;2.46;84.04
77118;BME280;66072;50.238;19.228;2024-01-27T05:32:05;99168.48;;;2.49;84.10
77118;BME280;66072;50.238;19.228;2024-01-27T05:34:32;99163.58;;;2.50;83.50
77118;BME280;66072;50.238;19.228;2024-01-27T05:37:00;99162.55;;;2.55;82.63
77118;BME280;66072;50.238;19.228;2024-01-27T05:39:28;99167.96;;;2.59;81.71
77118;BME280;66072;50.238;19.228;2024-01-27T05:41:56;99170.14;;;2.61;82.35
77118;BME280;66072;50.238;19.228;2024-01-27T05:44:24;99169.31;;;2.59;82.48
77118;BME280;66072;50.238;19.228;2024-01-27T05:46:51;99166.77;;;2.58;81.36
77118;BME280;66072;50.238;19.228;2024-01-27T05:49:19;99169.13;;;2.61;81.51
77118;BME280;66072;50.238;19.228;2024-01-27T05:51:47;99166.77;;;2.60;82.26
77118;BME280;66072;50.238;19.228;2024-01-27T05:54:14;99161.54;;;2.57;81.64
77118;BME280;66072;50.238;19.228;2024-01-27T05:56:42;99160.19;;;2.56;81.31
77118;BME280;66072;50.238;19.228;2024-01-27T05:59:10;99156.98;;;2.57;80.97
77118;BME280;66072;50.238;19.228;2024-01-27T06:01:38;99160.02;;;2.57;80.54
77118;BME280;66072;50.238;19.228;2024-01-27T06:04:05;99162.05;;;2.58;80.37
77118;BME280;66072;50.238;19.228;2024-01-27T06:06:33;99168.13;;;2.58;80.44
77118;BME280;66072;50.238;19.228;2024-01-27T06:09:01;99167.28;;;2.58;80.48
77118;BME280;66072;50.238;19.228;2024-01-27T06:11:29;99167.45;;;2.57;79.75
77118;BME280;66072;50.238;19.228;2024-01-27T06:13:57;99175.55;;;2.60;80.02
77118;BME280;66072;50.238;19.228;2024-01-27T06:16:24;99182.99;;;2.59;80.12
77118;BME280;66072;50.238;19.228;2024-01-27T06:18:52;99185.19;;;2.59;80.21
77118;BME280;66072;50.238;19.228;2024-01-27T06:21:20;99174.38;;;2.57;80.73
77118;BME280;66072;50.238;19.228;2024-01-27T06:23:48;99181.98;;;2.55;80.07
77118;BME280;66072;50.238;19.228;2024-01-27T06:26:16;99181.81;;;2.55;79.80
77118;BME280;66072;50.238;19.228;2024-01-27T06:28:43;99180.62;;;2.55;79.83
77118;BME280;66072;50.238;19.228;2024-01-27T06:31:11;99177.09;;;2.55;79.33
77118;BME280;66072;50.238;19.228;2024-01-27T06:33:39;99185.68;;;2.56;78.91
77118;BME280;66072;50.238;19.228;2024-01-27T06:36:07;99180.11;;;2.56;79.32
77118;BME280;66072;50.238;19.228;2024-01-27T06:38:37;99178.95;;;2.53;79.47
77118;BME280;66072;50.238;19.228;2024-01-27T06:41:04;99174.05;;;2.55;78.72
77118;BME280;66072;50.238;19.228;2024-01-27T06:43:32;99180.29;;;2.57;78.47
77118;BME280;66072;50.238;19.228;2024-01-27T06:46:00;99180.11;;;2.60;78.12
77118;BME280;66072;50.238;19.228;2024-01-27T06:48:27;99182.98;;;2.60;78.21
77118;BME280;66072;50.238;19.228;2024-01-27T06:50:55;99176.55;;;2.62;77.75
77118;BME280;66072;50.238;19.228;2024-01-27T06:53:23;99180.94;;;2.63;77.76
77118;BME280;66072;50.238;19.228;2024-01-27T06:55:51;99173.85;;;2.65;77.55
77118;BME280;66072;50.238;19.228;2024-01-27T06:58:18;99189.55;;;2.66;77.10
77118;BME280;66072;50.238;19.228;2024-01-27T07:00:46;99196.63;;;2.68;77.04
77118;BME280;66072;50.238;19.228;2024-01-27T07:03:14;99197.30;;;2.68;76.94
77118;BME280;66072;50.238;19.228;2024-01-27T07:05:42;99196.80;;;2.70;76.43
77118;BME280;66072;50.238;19.228;2024-01-27T07:08:10;99204.58;;;2.72;77.00
77118;BME280;66072;50.238;19.228;2024-01-27T07:10:38;99194.43;;;2.71;77.02
77118;BME280;66072;50.238;19.228;2024-01-27T07:13:05;99205.41;;;2.71;77.46
77118;BME280;66072;50.238;19.228;2024-01-27T07:15:33;99214.02;;;2.73;76.90
77118;BME280;66072;50.238;19.228;2024-01-27T07:18:01;99200.50;;;2.74;76.79
77118;BME280;66072;50.238;19.228;2024-01-27T07:20:29;99205.38;;;2.76;76.83
77118;BME280;66072;50.238;19.228;2024-01-27T07:22:56;99203.88;;;2.74;76.19
77118;BME280;66072;50.238;19.228;2024-01-27T07:25:24;99199.82;;;2.78;76.35
77118;BME280;66072;50.238;19.228;2024-01-27T07:27:52;99197.61;;;2.81;75.96
77118;BME280;66072;50.238;19.228;2024-01-27T07:30:19;99201.48;;;2.86;75.87
77118;BME280;66072;50.238;19.228;2024-01-27T07:32:47;99205.17;;;2.91;75.87
77118;BME280;66072;50.238;19.228;2024-01-27T07:35:15;99209.56;;;2.95;75.53
77118;BME280;66072;50.238;19.228;2024-01-27T07:37:43;99189.94;;;2.99;74.77
77118;BME280;66072;50.238;19.228;2024-01-27T07:40:11;99194.15;;;3.01;74.58
77118;BME280;66072;50.238;19.228;2024-01-27T07:42:38;99199.72;;;3.00;74.80
77118;BME280;66072;50.238;19.228;2024-01-27T07:45:06;99205.13;;;2.99;74.66
77118;BME280;66072;50.238;19.228;2024-01-27T07:47:34;99207.66;;;3.00;74.70
77118;BME280;66072;50.238;19.228;2024-01-27T07:50:02;99208.02;;;3.00;73.86
77118;BME280;66072;50.238;19.228;2024-01-27T07:52:30;99213.77;;;3.02;74.02
77118;BME280;66072;50.238;19.228;2024-01-27T07:54:57;99211.05;;;3.01;74.13
77118;BME280;66072;50.238;19.228;2024-01-27T07:57:25;99213.59;;;3.02;74.22
77118;BME280;66072;50.238;19.228;2024-01-27T07:59:53;99220.67;;;3.03;73.70
77118;BME280;66072;50.238;19.228;2024-01-27T08:02:20;99216.42;;;3.06;73.30
77118;BME280;66072;50.238;19.228;2024-01-27T08:04:48;99232.81;;;3.09;73.31
77118;BME280;66072;50.238;19.228;2024-01-27T08:07:16;99236.35;;;3.11;73.54
77118;BME280;66072;50.238;19.228;2024-01-27T08:09:43;99245.15;;;3.09;73.31
77118;BME280;66072;50.238;19.228;2024-01-27T08:12:11;99240.94;;;3.07;73.18
77118;BME280;66072;50.238;19.228;2024-01-27T08:14:39;99241.47;;;3.02;73.06
77118;BME280;66072;50.238;19.228;2024-01-27T08:17:06;99241.30;;;3.02;73.30
77118;BME280;66072;50.238;19.228;2024-01-27T08:19:34;99232.52;;;2.99;73.01
77118;BME280;66072;50.238;19.228;2024-01-27T08:22:02;99248.58;;;2.97;73.34
77118;BME280;66072;50.238;19.228;2024-01-27T08:24:30;99243.02;;;2.94;73.14
77118;BME280;66072;50.238;19.228;2024-01-27T08:26:58;99253.15;;;2.92;73.56
77118;BME280;66072;50.238;19.228;2024-01-27T08:29:26;99248.43;;;2.91;73.44
77118;BME280;66072;50.238;19.228;2024-01-27T08:31:54;99241.33;;;2.92;73.52
77118;BME280;66072;50.238;19.228;2024-01-27T08:34:22;99241.15;;;2.92;73.56
77118;BME280;66072;50.238;19.228;2024-01-27T08:36:50;99226.61;;;2.95;72.82
77118;BME280;66072;50.238;19.228;2024-01-27T08:39:17;99237.08;;;3.02;73.42
77118;BME280;66072;50.238;19.228;2024-01-27T08:41:45;99238.58;;;3.04;73.45
77118;BME280;66072;50.238;19.228;2024-01-27T08:44:13;99251.59;;;3.04;73.86
77118;BME280;66072;50.238;19.228;2024-01-27T08:46:41;99242.14;;;3.00;74.60
77118;BME280;66072;50.238;19.228;2024-01-27T08:49:08;99246.90;;;2.90;75.45
77118;BME280;66072;50.238;19.228;2024-01-27T08:51:36;99240.70;;;2.79;76.70
77118;BME280;66072;50.238;19.228;2024-01-27T08:54:04;99264.02;;;2.68;78.98
77118;BME280;66072;50.238;19.228;2024-01-27T08:56:32;99251.37;;;2.57;80.53
77118;BME280;66072;50.238;19.228;2024-01-27T08:58:59;99264.22;;;2.45;81.90
77118;BME280;66072;50.238;19.228;2024-01-27T09:01:27;99268.79;;;2.30;83.79
77118;BME280;66072;50.238;19.228;2024-01-27T09:03:55;99265.91;;;2.18;85.41
77118;BME280;66072;50.238;19.228;2024-01-27T09:06:23;99271.66;;;2.10;86.61
77118;BME280;66072;50.238;19.228;2024-01-27T09:08:53;99267.45;;;2.05;87.72
77118;BME280;66072;50.238;19.228;2024-01-27T09:11:20;99264.39;;;1.96;88.23
77118;BME280;66072;50.238;19.228;2024-01-27T09:13:48;99273.33;;;1.88;88.66
77118;BME280;66072;50.238;19.228;2024-01-27T09:16:16;99274.15;;;1.83;89.10
77118;BME280;66072;50.238;19.228;2024-01-27T09:18:44;99278.20;;;1.82;89.95
77118;BME280;66072;50.238;19.228;2024-01-27T09:21:12;99282.58;;;1.82;90.48
77118;BME280;66072;50.238;19.228;2024-01-27T09:23:39;99285.95;;;1.77;91.00
77118;BME280;66072;50.238;19.228;2024-01-27T09:26:07;99282.91;;;1.73;92.09
77118;BME280;66072;50.238;19.228;2024-01-27T09:28:35;99287.80;;;1.72;92.41
77118;BME280;66072;50.238;19.228;2024-01-27T09:31:03;99283.08;;;1.75;92.68
77118;BME280;66072;50.238;19.228;2024-01-27T09:33:31;99278.52;;;1.76;92.79
77118;BME280;66072;50.238;19.228;2024-01-27T09:35:58;99281.73;;;1.75;93.15
77118;BME280;66072;50.238;19.228;2024-01-27T09:38:26;99279.19;;;1.72;93.55
77118;BME280;66072;50.238;19.228;2024-01-27T09:40:54;99281.37;;;1.64;93.98
77118;BME280;66072;50.238;19.228;2024-01-27T09:43:24;99280.02;;;1.60;94.20
77118;BME280;66072;50.238;19.228;2024-01-27T09:45:52;99288.11;;;1.61;94.87
77118;BME280;66072;50.238;19.228;2024-01-27T09:48:22;99277.82;;;1.59;94.99
77118;BME280;66072;50.238;19.228;2024-01-27T09:50:51;99286.07;;;1.53;95.50
77118;BME280;66072;50.238;19.228;2024-01-27T09:53:20;99284.20;;;1.49;95.79
77118;BME280;66072;50.238;19.228;2024-01-27T09:55:47;99288.41;;;1.49;96.06
77118;BME280;66072;50.238;19.228;2024-01-27T09:58:15;99277.94;;;1.44;96.52
77118;BME280;66072;50.238;19.228;2024-01-27T10:00:44;99286.02;;;1.40;96.64
77118;BME280;66072;50.238;19.228;2024-01-27T10:03:12;99283.31;;;1.39;96.79
77118;BME280;66072;50.238;19.228;2024-01-27T10:05:41;99278.09;;;1.39;97.40
77118;BME280;66072;50.238;19.228;2024-01-27T10:08:10;99284.66;;;1.38;97.35
77118;BME280;66072;50.238;19.228;2024-01-27T10:10:38;99282.80;;;1.40;97.28
77118;BME280;66072;50.238;19.228;2024-01-27T10:13:06;99280.48;;;1.43;97.56
77118;BME280;66072;50.238;19.228;2024-01-27T10:15:34;99277.12;;;1.48;97.53
77118;BME280;66072;50.238;19.228;2024-01-27T10:18:06;99278.30;;;1.52;97.44
77118;BME280;66072;50.238;19.228;2024-01-27T10:20:34;99272.59;;;1.55;97.13
77118;BME280;66072;50.238;19.228;2024-01-27T10:23:12;99281.68;;;1.58;97.30
77118;BME280;66072;50.238;19.228;2024-01-27T10:25:40;99278.83;;;1.63;97.22
77118;BME280;66072;50.238;19.228;2024-01-27T10:28:08;99280.38;;;1.68;96.89
77118;BME280;66072;50.238;19.228;2024-01-27T10:30:37;99288.12;;;1.72;96.94
77118;BME280;66072;50.238;19.228;2024-01-27T10:33:07;99285.26;;;1.71;97.00
77118;BME280;66072;50.238;19.228;2024-01-27T10:35:35;99284.23;;;1.71;97.05
77118;BME280;66072;50.238;19.228;2024-01-27T10:38:03;99291.17;;;1.76;96.86
77118;BME280;66072;50.238;19.228;2024-01-27T10:40:31;99298.27;;;1.80;96.26
77118;BME280;66072;50.238;19.228;2024-01-27T10:45:30;99288.50;;;1.86;95.33
77118;BME280;66072;50.238;19.228;2024-01-27T10:48:02;99288.99;;;1.89;95.38
77118;BME280;66072;50.238;19.228;2024-01-27T10:50:36;99286.98;;;1.89;95.27
77118;BME280;66072;50.238;19.228;2024-01-27T10:53:27;99288.01;;;1.91;95.31
77118;BME280;66072;50.238;19.228;2024-01-27T10:55:57;99286.99;;;1.94;95.28
77118;BME280;66072;50.238;19.228;2024-01-27T10:58:25;99279.08;;;1.97;95.13
77118;BME280;66072;50.238;19.228;2024-01-27T11:00:55;99285.83;;;1.98;95.33
77118;BME280;66072;50.238;19.228;2024-01-27T11:03:25;99288.68;;;2.00;95.33
77118;BME280;66072;50.238;19.228;2024-01-27T11:05:54;99285.48;;;2.00;95.04
77118;BME280;66072;50.238;19.228;2024-01-27T11:08:23;99286.85;;;2.04;95.28
77118;BME280;66072;50.238;19.228;2024-01-27T11:10:52;99289.20;;;2.09;94.63
77118;BME280;66072;50.238;19.228;2024-01-27T11:13:19;99292.23;;;2.12;94.43
77118;BME280;66072;50.238;19.228;2024-01-27T11:15:54;99298.66;;;2.13;94.65
77118;BME280;66072;50.238;19.228;2024-01-27T11:18:22;99298.48;;;2.12;94.80
77118;BME280;66072;50.238;19.228;2024-01-27T11:20:58;99301.02;;;2.11;94.79
77118;BME280;66072;50.238;19.228;2024-01-27T11:23:33;99304.73;;;2.10;94.93
77118;BME280;66072;50.238;19.228;2024-01-27T11:26:08;99304.73;;;2.10;95.14
77118;BME280;66072;50.238;19.228;2024-01-27T11:28:37;99309.46;;;2.10;95.55
77118;BME280;66072;50.238;19.228;2024-01-27T11:31:05;99314.52;;;2.09;95.74
77118;BME280;66072;50.238;19.228;2024-01-27T11:33:39;99320.08;;;2.13;96.49
77118;BME280;66072;50.238;19.228;2024-01-27T11:36:08;99322.11;;;2.10;96.11
77118;BME280;66072;50.238;19.228;2024-01-27T11:38:44;99325.48;;;2.07;96.62
77118;BME280;66072;50.238;19.228;2024-01-27T11:41:12;99323.62;;;2.00;96.98
77118;BME280;66072;50.238;19.228;2024-01-27T11:43:40;99322.59;;;1.94;96.89
77118;BME280;66072;50.238;19.228;2024-01-27T11:46:08;99324.95;;;1.91;97.41
77118;BME280;66072;50.238;19.228;2024-01-27T11:48:41;99325.45;;;1.92;97.54
77118;BME280;66072;50.238;19.228;2024-01-27T11:51:12;99322.59;;;1.92;97.82
77118;BME280;66072;50.238;19.228;2024-01-27T11:53:40;99324.77;;;1.90;98.20
77118;BME280;66072;50.238;19.228;2024-01-27T11:56:08;99328.46;;;1.83;98.39
77118;BME280;66072;50.238;19.228;2024-01-27T11:58:36;99331.16;;;1.80;98.65
77118;BME280;66072;50.238;19.228;2024-01-27T12:01:03;99331.48;;;1.77;98.95
77118;BME280;66072;50.238;19.228;2024-01-27T12:03:32;99333.86;;;1.82;98.88
77118;BME280;66072;50.238;19.228;2024-01-27T12:05:59;99339.98;;;1.99;98.78
77118;BME280;66072;50.238;19.228;2024-01-27T12:08:27;99343.03;;;2.12;98.29
77118;BME280;66072;50.238;19.228;2024-01-27T12:10:55;99349.27;;;2.14;98.15
77118;BME280;66072;50.238;19.228;2024-01-27T12:13:23;99351.83;;;2.16;98.16
77118;BME280;66072;50.238;19.228;2024-01-27T12:15:51;99351.48;;;2.12;98.05
77118;BME280;66072;50.238;19.228;2024-01-27T12:18:18;99357.37;;;2.07;97.90
77118;BME280;66072;50.238;19.228;2024-01-27T12:20:55;99354.49;;;2.05;98.33
77118;BME280;66072;50.238;19.228;2024-01-27T12:23:23;99359.55;;;2.05;98.39
77118;BME280;66072;50.238;19.228;2024-01-27T12:25:54;99360.23;;;2.03;98.53
77118;BME280;66072;50.238;19.228;2024-01-27T12:28:23;99361.06;;;1.98;98.48
77118;BME280;66072;50.238;19.228;2024-01-27T12:30:52;99368.81;;;1.99;98.63
77118;BME280;66072;50.238;19.228;2024-01-27T12:33:20;99361.23;;;1.98;98.72
77118;BME280;66072;50.238;19.228;2024-01-27T12:35:49;99363.59;;;1.98;98.79
77118;BME280;66072;50.238;19.228;2024-01-27T12:38:20;99360.73;;;2.01;98.93
77118;BME280;66072;50.238;19.228;2024-01-27T12:40:47;99364.61;;;2.04;98.81
77118;BME280;66072;50.238;19.228;2024-01-27T12:43:15;99355.52;;;2.04;98.46
77118;BME280;66072;50.238;19.228;2024-01-27T12:45:43;99363.27;;;2.09;98.66
77118;BME280;66072;50.238;19.228;2024-01-27T12:48:11;99368.86;;;2.11;98.47
77118;BME280;66072;50.238;19.228;2024-01-27T12:50:39;99374.42;;;2.15;98.41
77118;BME280;66072;50.238;19.228;2024-01-27T12:53:06;99377.30;;;2.18;98.42
77118;BME280;66072;50.238;19.228;2024-01-27T12:55:34;99387.59;;;2.18;98.67
77118;BME280;66072;50.238;19.228;2024-01-27T12:58:02;99384.04;;;2.13;98.15
77118;BME280;66072;50.238;19.228;2024-01-27T13:00:30;99391.80;;;2.09;97.95
77118;BME280;66072;50.238;19.228;2024-01-27T13:02:58;99398.34;;;2.02;98.08
77118;BME280;66072;50.238;19.228;2024-01-27T13:05:26;99394.96;;;1.99;98.58
77118;BME280;66072;50.238;19.228;2024-01-27T13:07:58;99394.29;;;1.94;98.87